createdAt,value
2024-02-07T00:00:48.592Z,9.90
2024-02-07T00:03:51.401Z,9.80
2024-02-07T00:06:53.195Z,9.90
2024-02-07T00:09:54.966Z,9.90
2024-02-07T00:12:56.723Z,10.00
2024-02-07T00:15:58.536Z,10.00
2024-02-07T00:19:00.343Z,10.00
2024-02-07T00:22:02.256Z,10.00
2024-02-07T00:25:04.406Z,10.00
2024-02-07T00:28:08.044Z,9.90
2024-02-07T00:31:09.912Z,9.90
2024-02-07T00:34:11.717Z,10.00
2024-02-07T00:37:13.567Z,10.00
2024-02-07T00:40:15.936Z,10.00
2024-02-07T00:43:17.896Z,9.90
2024-02-07T00:46:19.790Z,9.90
2024-02-07T00:49:21.767Z,9.90
2024-02-07T00:52:23.899Z,10.00
2024-02-07T00:55:25.689Z,9.90
2024-02-07T00:58:27.645Z,8.80
2024-02-07T01:01:30.255Z,7.80
2024-02-07T01:04:32.273Z,7.20
2024-02-07T01:07:34.072Z,6.90
2024-02-07T01:10:37.292Z,6.50
2024-02-07T01:13:39.199Z,6.30
2024-02-07T01:16:41.718Z,6.20
2024-02-07T01:19:43.531Z,6.10
2024-02-07T01:22:45.459Z,6.10
2024-02-07T01:25:47.221Z,6.20
2024-02-07T01:28:50.784Z,6.10
2024-02-07T01:31:53.299Z,6.20
2024-02-07T01:34:55.181Z,6.10
2024-02-07T01:38:08.694Z,6.10
2024-02-07T01:41:10.675Z,6.10
2024-02-07T01:44:12.440Z,6.10
2024-02-07T01:47:15.196Z,6.00
2024-02-07T01:50:17.819Z,5.80
2024-02-07T01:53:20.658Z,5.80
2024-02-07T01:56:22.890Z,5.90
2024-02-07T01:59:26.174Z,5.90
2024-02-07T02:02:27.984Z,6.00
2024-02-07T02:05:29.723Z,5.80
2024-02-07T02:08:31.513Z,5.80
2024-02-07T02:11:36.620Z,5.90
2024-02-07T02:14:38.516Z,5.90
2024-02-07T02:17:40.328Z,5.90
2024-02-07T02:20:45.113Z,5.80
2024-02-07T02:23:52.907Z,5.80
2024-02-07T02:27:11.851Z,5.90
2024-02-07T02:30:21.049Z,5.90
2024-02-07T02:33:25.980Z,5.90
2024-02-07T02:36:28.209Z,5.80
2024-02-07T02:39:30.458Z,5.80
2024-02-07T02:42:33.222Z,5.70
2024-02-07T02:45:34.951Z,5.80
2024-02-07T02:48:37.042Z,5.70
2024-02-07T02:51:38.802Z,5.90
2024-02-07T02:54:40.611Z,5.70
2024-02-07T02:57:43.742Z,5.70
2024-02-07T03:00:51.329Z,5.80
2024-02-07T03:03:56.082Z,5.70
2024-02-07T03:07:14.275Z,5.80
2024-02-07T03:10:17.901Z,5.70
2024-02-07T03:13:19.847Z,5.60
2024-02-07T03:16:21.749Z,5.60
2024-02-07T03:19:23.551Z,5.70
2024-02-07T03:22:25.404Z,5.70
2024-02-07T03:25:27.547Z,5.70
2024-02-07T03:28:32.185Z,5.80
2024-02-07T03:31:38.083Z,5.70
2024-02-07T03:34:39.991Z,5.70
2024-02-07T03:37:42.830Z,5.80
2024-02-07T03:40:46.542Z,5.60
2024-02-07T03:43:49.043Z,5.60
2024-02-07T03:46:51.450Z,5.60
2024-02-07T03:49:53.779Z,5.60
2024-02-07T03:52:56.325Z,5.60
2024-02-07T03:55:58.612Z,4.40
2024-02-07T03:59:00.627Z,5.60
2024-02-07T04:02:02.690Z,5.60
2024-02-07T04:05:05.624Z,5.60
2024-02-07T04:08:08.514Z,5.40
2024-02-07T04:11:13.320Z,5.30
2024-02-07T04:14:15.027Z,5.20
2024-02-07T04:17:35.722Z,5.10
2024-02-07T04:20:55.980Z,5.10
2024-02-07T04:24:16.443Z,5.00
2024-02-07T04:27:36.644Z,4.80
2024-02-07T04:30:57.428Z,4.90
2024-02-07T04:34:18.093Z,4.80
2024-02-07T04:37:38.548Z,4.80
2024-02-07T04:40:58.981Z,4.80
2024-02-07T04:44:19.502Z,4.80
2024-02-07T04:47:39.995Z,4.80
2024-02-07T04:51:00.685Z,4.60
2024-02-07T04:54:21.321Z,4.60
2024-02-07T04:57:41.761Z,4.60
2024-02-07T05:01:02.298Z,4.50
2024-02-07T05:04:22.648Z,4.50
2024-02-07T05:07:43.074Z,4.60
2024-02-07T05:11:03.728Z,4.40
2024-02-07T05:14:24.369Z,4.40
2024-02-07T05:17:27.313Z,4.50
2024-02-07T05:20:29.521Z,5.80
2024-02-07T05:23:31.658Z,4.30
2024-02-07T05:26:36.272Z,4.20
2024-02-07T05:29:38.104Z,4.00
2024-02-07T05:32:40.163Z,3.90
2024-02-07T05:35:42.022Z,3.90
2024-02-07T05:38:44.318Z,3.90
2024-02-07T05:41:47.073Z,3.90
2024-02-07T05:44:49.849Z,3.80
2024-02-07T05:47:51.645Z,4.00
2024-02-07T05:50:54.485Z,3.90
2024-02-07T05:53:56.281Z,3.90
2024-02-07T05:56:58.115Z,3.90
2024-02-07T06:00:00.988Z,3.80
2024-02-07T06:03:06.922Z,3.70
2024-02-07T06:06:08.735Z,3.70
2024-02-07T06:09:10.524Z,3.70
2024-02-07T06:12:13.635Z,3.70
2024-02-07T06:15:15.546Z,3.70
2024-02-07T06:18:20.743Z,3.70
2024-02-07T06:21:22.567Z,3.70
2024-02-07T06:24:24.631Z,3.70
2024-02-07T06:27:26.630Z,3.60
2024-02-07T06:30:29.039Z,3.70
2024-02-07T06:33:31.197Z,3.70
2024-02-07T06:36:34.095Z,3.80
2024-02-07T06:39:37.225Z,3.90
2024-02-07T06:42:39.520Z,3.80
2024-02-07T06:45:41.764Z,3.70
2024-02-07T06:48:44.264Z,3.80
2024-02-07T06:51:47.298Z,3.80
2024-02-07T06:54:49.562Z,3.90
2024-02-07T06:57:51.426Z,3.80
2024-02-07T07:00:54.456Z,3.80
2024-02-07T07:03:58.116Z,3.80
2024-02-07T07:06:59.883Z,3.80
2024-02-07T07:10:01.754Z,3.90
2024-02-07T07:13:03.602Z,3.80
2024-02-07T07:16:07.313Z,3.80
2024-02-07T07:19:12.590Z,3.80
2024-02-07T07:22:15.850Z,3.90
2024-02-07T07:25:18.021Z,3.90
2024-02-07T07:28:19.889Z,3.90
2024-02-07T07:31:21.678Z,3.90
2024-02-07T07:34:23.597Z,3.90
2024-02-07T07:37:25.556Z,3.90
2024-02-07T07:40:28.995Z,4.30
2024-02-07T07:43:30.863Z,3.90
2024-02-07T07:46:32.758Z,4.00
2024-02-07T07:49:34.924Z,3.90
2024-02-07T07:52:36.760Z,3.80
2024-02-07T07:55:38.724Z,4.00
2024-02-07T07:58:48.839Z,4.10
2024-02-07T08:01:59.513Z,3.90
2024-02-07T08:05:01.469Z,4.00
2024-02-07T08:08:05.224Z,4.10
2024-02-07T08:11:07.348Z,4.00
2024-02-07T08:14:09.094Z,4.10
2024-02-07T08:17:16.713Z,4.10
2024-02-07T08:20:23.392Z,4.10
2024-02-07T08:23:25.926Z,4.10
2024-02-07T08:26:27.721Z,4.10
2024-02-07T08:29:30.595Z,4.10
2024-02-07T08:32:33.288Z,4.10
2024-02-07T08:35:35.229Z,4.30
2024-02-07T08:38:37.140Z,4.20
2024-02-07T08:41:42.015Z,4.30
2024-02-07T08:44:44.069Z,4.30
2024-02-07T08:47:47.094Z,4.40
2024-02-07T08:50:48.985Z,4.40
2024-02-07T08:53:50.758Z,4.50
2024-02-07T08:56:52.570Z,4.50
2024-02-07T08:59:54.583Z,4.50
2024-02-07T09:02:56.414Z,4.60
2024-02-07T09:05:58.298Z,4.50
2024-02-07T09:09:00.315Z,4.60
2024-02-07T09:12:02.034Z,4.50
2024-02-07T09:15:04.031Z,4.50
2024-02-07T09:18:06.195Z,4.50
2024-02-07T09:21:08.208Z,4.60
2024-02-07T09:24:10.190Z,4.50
2024-02-07T09:27:12.694Z,4.60
2024-02-07T09:30:14.930Z,4.60
2024-02-07T09:33:16.902Z,4.60
2024-02-07T09:36:19.432Z,4.70
2024-02-07T09:39:21.827Z,4.80
2024-02-07T09:42:25.179Z,2.90
2024-02-07T09:45:33.454Z,4.70
2024-02-07T09:48:35.518Z,4.70
2024-02-07T09:51:37.558Z,4.70
2024-02-07T09:54:39.888Z,4.70
2024-02-07T09:57:42.012Z,4.60
2024-02-07T10:00:43.926Z,4.60
2024-02-07T10:03:48.816Z,4.70
2024-02-07T10:06:50.713Z,4.80
2024-02-07T10:09:54.016Z,4.80
2024-02-07T10:12:57.983Z,4.80
2024-02-07T10:16:00.060Z,4.90
2024-02-07T10:19:01.888Z,4.90
2024-02-07T10:22:18.791Z,4.90
2024-02-07T10:25:21.293Z,5.00
2024-02-07T10:28:26.226Z,5.10
2024-02-07T10:31:28.312Z,5.10
2024-02-07T10:34:30.299Z,5.10
2024-02-07T10:37:44.694Z,5.30
2024-02-07T10:40:47.168Z,5.20
2024-02-07T10:43:49.060Z,5.10
2024-02-07T10:46:59.435Z,5.20
2024-02-07T10:50:03.772Z,5.20
2024-02-07T10:53:05.689Z,5.20
2024-02-07T10:56:14.152Z,5.20
2024-02-07T10:59:16.256Z,5.30
2024-02-07T11:02:18.546Z,5.40
2024-02-07T11:05:23.229Z,5.40
2024-02-07T11:08:26.959Z,5.50
2024-02-07T11:11:31.520Z,6.40
2024-02-07T11:14:33.541Z,5.70
2024-02-07T11:17:35.683Z,5.60
2024-02-07T11:20:38.048Z,5.70
2024-02-07T11:23:41.683Z,5.70
2024-02-07T11:26:43.659Z,5.80
2024-02-07T11:29:46.588Z,5.90
2024-02-07T11:32:49.481Z,5.60
2024-02-07T11:35:52.873Z,5.50
2024-02-07T11:38:56.102Z,5.50
2024-02-07T11:41:58.267Z,5.50
2024-02-07T11:45:01.454Z,5.40
2024-02-07T11:48:03.517Z,5.60
2024-02-07T11:51:12.771Z,5.70
2024-02-07T11:54:21.837Z,5.90
2024-02-07T11:57:24.874Z,5.80
2024-02-07T12:00:27.898Z,5.90
2024-02-07T12:03:29.938Z,6.10
2024-02-07T12:06:33.186Z,6.00
2024-02-07T12:09:35.325Z,6.00
2024-02-07T12:12:37.918Z,6.10
2024-02-07T12:15:41.488Z,6.20
2024-02-07T12:18:44.908Z,6.20
2024-02-07T12:21:47.629Z,6.30
2024-02-07T12:24:51.587Z,6.20
2024-02-07T12:27:53.626Z,6.40
2024-02-07T12:30:56.784Z,6.80
2024-02-07T12:33:58.933Z,6.90
2024-02-07T12:37:00.951Z,7.10
2024-02-07T12:40:03.440Z,7.00
2024-02-07T12:43:05.788Z,7.00
2024-02-07T12:46:08.757Z,7.50
2024-02-07T12:49:11.440Z,8.20
2024-02-07T12:52:14.627Z,7.80
2024-02-07T12:55:18.028Z,7.60
2024-02-07T12:58:20.169Z,7.40
2024-02-07T13:01:27.401Z,8.10
2024-02-07T13:04:32.212Z,8.30
2024-02-07T13:07:34.886Z,8.10
2024-02-07T13:10:39.254Z,8.40
2024-02-07T13:13:41.324Z,8.40
2024-02-07T13:16:44.886Z,9.20
2024-02-07T13:19:46.770Z,9.20
2024-02-07T13:22:48.664Z,8.60
2024-02-07T13:25:55.571Z,8.20
2024-02-07T13:28:58.994Z,8.30
2024-02-07T13:32:01.046Z,8.30
2024-02-07T13:35:03.624Z,9.00
2024-02-07T13:38:07.470Z,9.00
2024-02-07T13:41:11.440Z,9.10
2024-02-07T13:44:13.952Z,8.70
2024-02-07T13:47:17.157Z,8.20
2024-02-07T13:50:19.757Z,8.00
2024-02-07T13:53:21.908Z,8.20
2024-02-07T13:56:24.129Z,8.10
2024-02-07T13:59:27.289Z,8.00
2024-02-07T14:02:29.543Z,8.00
2024-02-07T14:05:31.435Z,8.00
2024-02-07T14:08:33.555Z,7.80
2024-02-07T14:11:42.794Z,7.80
2024-02-07T14:14:45.617Z,7.60
2024-02-07T14:17:47.925Z,7.60
2024-02-07T14:20:50.555Z,7.40
2024-02-07T14:23:53.100Z,7.50
2024-02-07T14:26:55.737Z,7.50
2024-02-07T14:29:58.418Z,7.40
2024-02-07T14:33:00.634Z,7.40
2024-02-07T14:36:02.732Z,7.50
2024-02-07T14:39:04.853Z,7.60
2024-02-07T14:42:07.554Z,7.50
2024-02-07T14:45:14.592Z,7.40
2024-02-07T14:48:16.912Z,7.40
2024-02-07T14:51:19.170Z,7.50
2024-02-07T14:54:21.584Z,7.50
2024-02-07T14:57:23.809Z,7.40
2024-02-07T15:00:26.194Z,7.20
2024-02-07T15:03:28.826Z,7.30
2024-02-07T15:06:31.272Z,7.30
2024-02-07T15:09:33.398Z,7.20
2024-02-07T15:12:35.429Z,7.10
2024-02-07T15:15:40.552Z,7.00
2024-02-07T15:18:44.998Z,7.00
2024-02-07T15:21:47.056Z,6.90
2024-02-07T15:24:49.444Z,6.80
2024-02-07T15:27:51.505Z,6.80
2024-02-07T15:30:55.435Z,6.80
2024-02-07T15:33:57.690Z,6.70
2024-02-07T15:37:00.985Z,6.60
2024-02-07T15:40:03.324Z,6.60
2024-02-07T15:43:05.686Z,6.60
2024-02-07T15:46:08.767Z,6.60
2024-02-07T15:49:11.597Z,6.50
2024-02-07T15:52:13.792Z,6.40
2024-02-07T15:55:19.432Z,6.40
2024-02-07T15:58:22.116Z,6.40
2024-02-07T16:01:33.712Z,6.40
2024-02-07T16:04:43.393Z,6.30
2024-02-07T16:07:46.049Z,6.30
2024-02-07T16:10:51.429Z,6.30
2024-02-07T16:13:53.540Z,6.20
2024-02-07T16:17:02.620Z,6.20
2024-02-07T16:20:05.373Z,6.20
2024-02-07T16:23:08.387Z,6.10
2024-02-07T16:26:10.721Z,6.10
2024-02-07T16:29:13.682Z,6.00
2024-02-07T16:32:15.625Z,5.90
2024-02-07T16:35:18.670Z,6.00
2024-02-07T16:38:20.515Z,6.00
2024-02-07T16:41:22.318Z,5.90
2024-02-07T16:44:24.947Z,5.90
2024-02-07T16:47:26.760Z,5.80
2024-02-07T16:50:29.028Z,5.80
2024-02-07T16:53:30.844Z,5.70
2024-02-07T16:56:33.065Z,5.80
2024-02-07T16:59:35.005Z,5.70
2024-02-07T17:02:36.762Z,5.70
2024-02-07T17:05:38.664Z,5.60
2024-02-07T17:08:40.400Z,5.60
2024-02-07T17:11:42.695Z,5.60
2024-02-07T17:14:46.474Z,5.60
2024-02-07T17:17:48.407Z,5.60
2024-02-07T17:20:52.470Z,5.60
2024-02-07T17:23:57.496Z,5.50
2024-02-07T17:27:01.488Z,5.60
2024-02-07T17:30:05.491Z,6.00
2024-02-07T17:33:08.950Z,5.50
2024-02-07T17:36:12.002Z,5.60
2024-02-07T17:39:14.987Z,5.50
2024-02-07T17:42:19.587Z,5.50
2024-02-07T17:45:28.491Z,5.50
2024-02-07T17:48:31.141Z,5.40
2024-02-07T17:51:33.509Z,5.40
2024-02-07T17:54:36.042Z,5.40
2024-02-07T17:57:38.366Z,5.60
2024-02-07T18:00:40.760Z,5.50
2024-02-07T18:03:43.053Z,5.50
2024-02-07T18:06:45.441Z,5.50
2024-02-07T18:09:47.953Z,6.60
2024-02-07T18:12:50.301Z,5.50
2024-02-07T18:15:52.333Z,5.50
2024-02-07T18:18:54.812Z,5.40
2024-02-07T18:21:56.879Z,5.40
2024-02-07T18:24:58.938Z,5.40
2024-02-07T18:28:00.779Z,5.30
2024-02-07T18:31:02.873Z,7.40
2024-02-07T18:34:05.367Z,5.30
2024-02-07T18:37:09.716Z,5.30
2024-02-07T18:40:13.368Z,5.30
2024-02-07T18:43:15.258Z,5.20
2024-02-07T18:46:18.568Z,5.30
2024-02-07T18:49:21.135Z,5.20
2024-02-07T18:52:24.436Z,5.20
2024-02-07T18:55:27.501Z,5.20
2024-02-07T18:58:30.735Z,5.30
2024-02-07T19:01:36.559Z,5.30
2024-02-07T19:04:39.532Z,5.20
2024-02-07T19:07:41.529Z,5.10
2024-02-07T19:10:43.690Z,5.10
2024-02-07T19:13:46.211Z,5.10
2024-02-07T19:16:48.543Z,5.00
2024-02-07T19:19:50.910Z,5.00
2024-02-07T19:22:53.386Z,4.90
2024-02-07T19:25:58.331Z,5.00
2024-02-07T19:29:01.175Z,4.90
2024-02-07T19:32:05.254Z,4.80
2024-02-07T19:35:08.269Z,4.80
2024-02-07T19:38:10.419Z,4.70
2024-02-07T19:41:12.517Z,4.70
2024-02-07T19:44:14.824Z,4.70
2024-02-07T19:47:17.512Z,4.60
2024-02-07T19:50:20.656Z,4.70
2024-02-07T19:53:23.404Z,4.50
2024-02-07T19:56:25.855Z,4.50
2024-02-07T19:59:27.729Z,4.30
2024-02-07T20:02:29.903Z,4.30
2024-02-07T20:05:32.426Z,4.20
2024-02-07T20:08:34.944Z,4.10
2024-02-07T20:11:37.754Z,4.10
2024-02-07T20:14:39.981Z,4.00
2024-02-07T20:17:42.314Z,4.00
2024-02-07T20:20:44.332Z,3.90
2024-02-07T20:23:46.091Z,3.80
2024-02-07T20:26:47.859Z,3.70
2024-02-07T20:29:49.641Z,3.70
2024-02-07T20:32:52.147Z,3.70
2024-02-07T20:35:54.225Z,5.00
2024-02-07T20:38:56.410Z,3.70
2024-02-07T20:41:58.579Z,3.70
2024-02-07T20:45:00.935Z,3.70
2024-02-07T20:48:03.220Z,3.70
2024-02-07T20:51:07.911Z,3.60
2024-02-07T20:54:10.187Z,3.50
2024-02-07T20:57:15.041Z,3.50
2024-02-07T21:00:17.396Z,3.50
2024-02-07T21:03:19.247Z,3.40
2024-02-07T21:06:23.364Z,3.40
2024-02-07T21:09:25.266Z,3.40
2024-02-07T21:12:27.039Z,3.30
2024-02-07T21:15:28.861Z,3.30
2024-02-07T21:18:30.755Z,3.20
2024-02-07T21:21:32.541Z,3.20
2024-02-07T21:24:34.969Z,3.20
2024-02-07T21:27:36.919Z,3.00
2024-02-07T21:30:39.563Z,3.00
2024-02-07T21:33:42.405Z,3.00
2024-02-07T21:36:44.276Z,2.90
2024-02-07T21:39:46.005Z,2.90
2024-02-07T21:42:47.791Z,2.80
2024-02-07T21:45:49.609Z,2.90
2024-02-07T21:48:52.528Z,2.80
2024-02-07T21:51:54.695Z,2.70
2024-02-07T21:54:56.488Z,2.80
2024-02-07T21:57:58.265Z,2.70
2024-02-07T22:01:00.040Z,2.80
2024-02-07T22:04:01.906Z,2.60
2024-02-07T22:07:04.006Z,2.60
2024-02-07T22:10:06.936Z,2.50
2024-02-07T22:13:08.740Z,2.50
2024-02-07T22:16:10.923Z,2.50
2024-02-07T22:19:12.806Z,2.50
2024-02-07T22:22:14.656Z,2.50
2024-02-07T22:25:16.880Z,2.40
2024-02-07T22:28:18.817Z,2.30
2024-02-07T22:31:23.996Z,2.30
2024-02-07T22:34:25.903Z,2.20
2024-02-07T22:37:27.888Z,2.20
2024-02-07T22:40:29.611Z,2.20
2024-02-07T22:43:31.419Z,2.10
2024-02-07T22:46:33.217Z,2.10
2024-02-07T22:49:37.023Z,2.10
2024-02-07T22:52:38.931Z,2.10
2024-02-07T22:55:41.739Z,2.10
2024-02-07T22:58:43.661Z,2.00
2024-02-07T23:01:45.471Z,2.00
2024-02-07T23:04:47.309Z,2.00
2024-02-07T23:07:50.444Z,2.00
2024-02-07T23:10:52.320Z,1.90
2024-02-07T23:13:54.252Z,1.90
2024-02-07T23:16:56.073Z,1.90
2024-02-07T23:19:57.959Z,1.90
2024-02-07T23:23:00.127Z,1.80
2024-02-07T23:26:02.002Z,1.80
2024-02-07T23:29:04.125Z,1.80
2024-02-07T23:32:06.772Z,1.80
2024-02-07T23:35:09.319Z,1.80
2024-02-07T23:38:11.163Z,1.80
2024-02-07T23:41:13.186Z,1.80
2024-02-07T23:44:15.047Z,1.80
2024-02-07T23:47:16.980Z,1.70
2024-02-07T23:50:18.828Z,1.80
2024-02-07T23:53:20.669Z,1.80
2024-02-07T23:56:23.034Z,1.70
2024-02-07T23:59:24.999Z,1.70
